createdAt,value
2018-03-21T00:01:37.062Z,102133.67
2018-03-21T00:04:07.839Z,102133.61
2018-03-21T00:06:36.583Z,102139.33
2018-03-21T00:09:06.258Z,102137.84
2018-03-21T00:12:37.871Z,102139.92
2018-03-21T00:15:06.454Z,102144.09
2018-03-21T00:17:34.892Z,102149.82
2018-03-21T00:20:03.645Z,102147.67
2018-03-21T00:22:32.312Z,102149.63
2018-03-21T00:25:01.065Z,102151.13
2018-03-21T00:27:29.676Z,102152.88
2018-03-21T00:29:58.400Z,102158.11
2018-03-21T00:32:27.402Z,102157.69
2018-03-21T00:34:56.114Z,102165.47
2018-03-21T00:37:24.613Z,102159.34
2018-03-21T00:39:53.060Z,102166.31
2018-03-21T00:42:21.588Z,102165.87
2018-03-21T00:44:50.274Z,102163.45
2018-03-21T00:47:19.432Z,102169.31
2018-03-21T00:49:48.022Z,102163.43
2018-03-21T00:52:16.527Z,102167.56
2018-03-21T00:54:45.226Z,102170.22
2018-03-21T00:57:13.808Z,102169.33
2018-03-21T00:59:42.312Z,102169.82
2018-03-21T01:02:11.004Z,102171.48
2018-03-21T01:04:39.611Z,102178.52
2018-03-21T01:07:08.230Z,102178.19
2018-03-21T01:09:36.794Z,102183.36
2018-03-21T01:12:05.578Z,102184.20
2018-03-21T01:14:34.469Z,102184.62
2018-03-21T01:17:03.130Z,102192.33
2018-03-21T01:19:32.143Z,102193.05
2018-03-21T01:22:00.825Z,102189.53
2018-03-21T01:24:29.340Z,102194.50
2018-03-21T01:26:57.792Z,102197.91
2018-03-21T01:29:26.300Z,102194.72
2018-03-21T01:31:54.948Z,102193.27
2018-03-21T01:34:23.376Z,102198.97
2018-03-21T01:36:52.240Z,102203.42
2018-03-21T01:39:20.809Z,102197.36
2018-03-21T01:41:49.394Z,102204.06
2018-03-21T01:44:18.373Z,102204.83
2018-03-21T01:46:46.989Z,102211.83
2018-03-21T01:49:15.684Z,102213.43
2018-03-21T01:51:44.500Z,102209.97
2018-03-21T01:54:13.455Z,102214.64
2018-03-21T01:56:42.121Z,102223.16
2018-03-21T01:59:10.828Z,102211.72
2018-03-21T02:01:40.301Z,102223.11
2018-03-21T02:04:09.122Z,102216.55
2018-03-21T02:06:37.618Z,102210.70
2018-03-21T02:09:06.137Z,102218.15
2018-03-21T02:11:35.132Z,102218.03
2018-03-21T02:14:04.087Z,102214.08
2018-03-21T02:16:32.486Z,102213.84
2018-03-21T02:19:00.907Z,102217.07
2018-03-21T02:21:29.337Z,102213.48
2018-03-21T02:23:58.132Z,102211.30
2018-03-21T02:26:27.450Z,102216.05
2018-03-21T02:28:56.385Z,102213.16
2018-03-21T02:31:25.544Z,102214.08
2018-03-21T02:33:54.065Z,102217.72
2018-03-21T02:36:22.647Z,102209.83
2018-03-21T02:38:51.309Z,102209.30
2018-03-21T02:41:20.182Z,102217.66
2018-03-21T02:43:48.709Z,102216.81
2018-03-21T02:46:17.633Z,102222.25
2018-03-21T02:48:46.173Z,102220.25
2018-03-21T02:51:15.077Z,102217.52
2018-03-21T02:53:43.537Z,102221.02
2018-03-21T02:56:11.964Z,102213.39
2018-03-21T02:58:40.602Z,102211.03
2018-03-21T03:01:09.332Z,102215.19
2018-03-21T03:03:37.914Z,102210.34
2018-03-21T03:06:06.418Z,102213.56
2018-03-21T03:08:34.845Z,102217.80
2018-03-21T03:11:03.294Z,102220.04
2018-03-21T03:13:31.821Z,102211.20
2018-03-21T03:16:00.535Z,102212.20
2018-03-21T03:18:29.486Z,102212.98
2018-03-21T03:20:58.390Z,102216.00
2018-03-21T03:23:26.941Z,102217.77
2018-03-21T03:25:56.021Z,102215.91
2018-03-21T03:28:24.524Z,102216.88
2018-03-21T03:30:52.995Z,102219.36
2018-03-21T03:33:21.584Z,102221.50
2018-03-21T03:35:50.089Z,102217.83
2018-03-21T03:38:19.868Z,102220.60
2018-03-21T03:40:48.424Z,102223.92
2018-03-21T03:43:17.045Z,102223.41
2018-03-21T03:45:45.800Z,102225.52
2018-03-21T03:48:14.419Z,102224.75
2018-03-21T03:50:43.162Z,102219.54
2018-03-21T03:53:11.748Z,102224.30
2018-03-21T03:55:40.486Z,102220.48
2018-03-21T03:58:09.560Z,102221.50
2018-03-21T04:00:38.188Z,102224.79
2018-03-21T04:03:06.836Z,102223.11
2018-03-21T04:05:35.524Z,102228.94
2018-03-21T04:08:03.993Z,102226.45
2018-03-21T04:10:32.617Z,102225.40
2018-03-21T04:13:01.185Z,102227.80
2018-03-21T04:15:29.620Z,102226.31
2018-03-21T04:17:58.160Z,102230.05
2018-03-21T04:20:26.765Z,102228.31
2018-03-21T04:22:55.286Z,102228.12
2018-03-21T04:25:23.725Z,102230.55
2018-03-21T04:27:52.421Z,102228.61
2018-03-21T04:30:21.220Z,102231.36
2018-03-21T04:32:49.806Z,102230.84
2018-03-21T04:35:18.624Z,102225.22
2018-03-21T04:37:47.297Z,102225.00
2018-03-21T04:40:15.772Z,102232.23
2018-03-21T04:42:44.591Z,102217.95
2018-03-21T04:45:13.452Z,102221.59
2018-03-21T04:47:42.137Z,102233.74
2018-03-21T04:50:10.835Z,102218.81
2018-03-21T04:52:39.424Z,102219.69
2018-03-21T04:55:07.949Z,102219.31
2018-03-21T04:57:36.821Z,102221.84
2018-03-21T11:35:26.507Z,102210.66
2018-03-21T11:37:55.399Z,102212.29
2018-03-21T11:40:24.024Z,102210.30
2018-03-21T11:42:53.164Z,102204.48
2018-03-21T11:45:22.439Z,102204.39
2018-03-21T11:47:51.445Z,102193.48
2018-03-21T11:50:20.402Z,102195.14
2018-03-21T11:52:50.694Z,102199.13
2018-03-21T11:55:19.176Z,102198.16
2018-03-21T11:57:48.964Z,102200.97
2018-03-21T12:00:17.454Z,102195.25
2018-03-21T12:02:47.122Z,102190.18
2018-03-21T12:05:16.096Z,102187.02
2018-03-21T12:07:44.846Z,102182.72
2018-03-21T12:10:13.757Z,102192.70
2018-03-21T12:12:42.714Z,102186.66
2018-03-21T12:15:11.510Z,102191.26
2018-03-21T12:17:40.632Z,102179.75
2018-03-21T12:20:09.485Z,102171.59
2018-03-21T12:22:38.073Z,102170.00
2018-03-21T12:25:06.735Z,102171.45
2018-03-21T12:27:35.663Z,102169.67
2018-03-21T12:30:05.481Z,102161.86
2018-03-21T12:32:35.439Z,102151.17
2018-03-21T12:35:03.911Z,102157.14
2018-03-21T12:37:32.984Z,102151.78
2018-03-21T12:40:01.497Z,102151.34
2018-03-21T12:42:30.980Z,102147.96
2018-03-21T12:44:59.473Z,102157.27
2018-03-21T12:47:29.218Z,102145.61
2018-03-21T12:49:58.843Z,102146.58
2018-03-21T12:52:28.655Z,102142.67
2018-03-21T12:54:57.409Z,102146.93
2018-03-21T12:57:27.235Z,102135.64
2018-03-21T12:59:55.930Z,102136.89
2018-03-21T13:02:24.682Z,102136.13
2018-03-21T13:04:53.631Z,102139.83
2018-03-21T13:07:22.328Z,102143.45
2018-03-21T13:09:51.024Z,102147.34
2018-03-21T13:12:20.365Z,102139.52
2018-03-21T13:14:49.217Z,102140.75
2018-03-21T13:17:18.408Z,102133.89
2018-03-21T13:19:47.106Z,102135.31
2018-03-21T13:22:15.974Z,102120.91
2018-03-21T13:24:45.064Z,102136.66
2018-03-21T13:27:13.928Z,102127.17
2018-03-21T13:29:42.817Z,102124.38
2018-03-21T13:32:11.880Z,102114.25
2018-03-21T13:34:40.938Z,102128.81
2018-03-21T13:37:09.779Z,102126.49
2018-03-21T13:39:38.864Z,102122.11
2018-03-21T13:42:07.928Z,102121.84
2018-03-21T13:44:36.925Z,102119.22
2018-03-21T13:47:05.440Z,102123.69
2018-03-21T13:49:34.082Z,102119.55
2018-03-21T13:52:03.218Z,102122.84
2018-03-21T13:54:33.080Z,102133.98
2018-03-21T13:57:01.903Z,102123.33
2018-03-21T13:59:30.515Z,102127.73
2018-03-21T14:01:59.765Z,102131.36
2018-03-21T14:04:28.431Z,102123.50
2018-03-21T14:06:57.085Z,102123.61
2018-03-21T14:09:26.013Z,102121.17
2018-03-21T14:11:54.787Z,102104.38
2018-03-21T14:14:24.055Z,102098.57
2018-03-21T14:16:53.620Z,102101.53
2018-03-21T14:19:22.962Z,102101.84
2018-03-21T14:21:52.440Z,102110.12
2018-03-21T14:24:21.154Z,102104.66
2018-03-21T14:26:49.774Z,102090.38
2018-03-21T14:29:18.214Z,102090.38
2018-03-21T14:31:46.926Z,102086.38
2018-03-21T14:34:15.616Z,102083.97
2018-03-21T14:36:44.713Z,102074.95
2018-03-21T14:39:13.568Z,102071.66
2018-03-21T14:41:42.330Z,102068.84
2018-03-21T14:44:10.816Z,102064.31
2018-03-21T14:46:40.453Z,102060.23
2018-03-21T14:49:09.325Z,102049.56
2018-03-21T14:51:38.277Z,102056.34
2018-03-21T14:54:07.124Z,102047.34
2018-03-21T14:56:35.850Z,102049.15
2018-03-21T14:59:04.460Z,102043.07
2018-03-21T15:01:33.579Z,102038.66
2018-03-21T15:04:03.552Z,102040.85
2018-03-21T15:06:33.154Z,102039.16
2018-03-21T15:09:02.508Z,102027.97
2018-03-21T15:11:31.336Z,102026.17
2018-03-21T15:14:00.698Z,102022.68
2018-03-21T15:16:30.002Z,102033.02
2018-03-21T15:18:59.333Z,102020.20
2018-03-21T15:21:28.227Z,102018.22
2018-03-21T15:23:57.336Z,102016.42
2018-03-21T15:26:27.550Z,102019.84
2018-03-21T15:28:58.363Z,102017.05
2018-03-21T15:31:27.032Z,102018.08
2018-03-21T15:33:55.635Z,102014.93
2018-03-21T15:36:25.594Z,102013.53
2018-03-21T15:38:54.922Z,102008.45
2018-03-21T15:41:24.410Z,102011.38
2018-03-21T15:43:53.973Z,102010.39
2018-03-21T15:46:24.227Z,102009.74
2018-03-21T15:48:53.289Z,102010.92
2018-03-21T15:51:22.625Z,102013.94
2018-03-21T15:53:52.061Z,102013.00
2018-03-21T15:56:21.362Z,102011.29
2018-03-21T15:58:50.186Z,102013.64
2018-03-21T16:01:18.921Z,102017.75
2018-03-21T16:03:47.664Z,102015.73
2018-03-21T16:06:16.779Z,102009.86
2018-03-21T16:08:46.766Z,102011.64
2018-03-21T16:11:16.823Z,102015.47
2018-03-21T16:13:45.444Z,102011.30
2018-03-21T16:16:14.274Z,102011.81
2018-03-21T16:18:44.178Z,102016.95
2018-03-21T16:21:13.122Z,102005.80
2018-03-21T16:23:42.763Z,102006.66
2018-03-21T16:26:11.800Z,102010.95
2018-03-21T16:28:40.979Z,102011.64
2018-03-21T16:31:10.542Z,102004.92
2018-03-21T16:33:40.249Z,102004.86
2018-03-21T16:36:09.744Z,102000.73
2018-03-21T16:38:38.531Z,102006.29
2018-03-21T16:41:07.400Z,102003.87
2018-03-21T16:43:36.558Z,102004.50
2018-03-21T16:46:05.648Z,102007.75
2018-03-21T16:48:34.373Z,102015.91
2018-03-21T16:51:03.656Z,102006.24
2018-03-21T16:53:32.246Z,102007.11
2018-03-21T16:56:02.030Z,102004.62
2018-03-21T16:58:30.719Z,102006.95
2018-03-21T17:01:00.157Z,102006.22
2018-03-21T17:03:29.269Z,102002.83
2018-03-21T17:05:59.029Z,102004.85
2018-03-21T17:08:28.119Z,102016.79
2018-03-21T17:10:57.270Z,102011.15
2018-03-21T17:13:26.145Z,102009.54
2018-03-21T17:15:55.027Z,102015.88
2018-03-21T17:18:24.043Z,102015.91
2018-03-21T17:20:52.998Z,102012.24
2018-03-21T17:23:21.612Z,102010.81
2018-03-21T17:25:50.325Z,102016.67
2018-03-21T17:28:19.443Z,102005.45
2018-03-21T17:30:48.251Z,102004.97
2018-03-21T17:33:16.756Z,102002.61
2018-03-21T17:35:47.403Z,102003.28
2018-03-21T17:38:16.008Z,102002.02
2018-03-21T17:40:45.673Z,101998.08
2018-03-21T17:43:14.169Z,102002.78
2018-03-21T17:45:43.258Z,101990.77
2018-03-21T17:48:13.042Z,101991.70
2018-03-21T17:50:41.718Z,101991.44
2018-03-21T17:53:10.608Z,101991.96
2018-03-21T17:55:39.438Z,101990.50
2018-03-21T17:58:07.947Z,101992.77
2018-03-21T18:00:36.993Z,101985.59
2018-03-21T18:03:05.676Z,101995.52
2018-03-21T18:05:35.037Z,101987.38
2018-03-21T18:08:03.992Z,101990.20
2018-03-21T18:10:33.637Z,101986.36
2018-03-21T18:13:03.404Z,101988.08
2018-03-21T18:15:32.071Z,101987.38
2018-03-21T18:18:00.906Z,101989.81
2018-03-21T18:20:29.669Z,101985.50
2018-03-21T18:22:58.203Z,101985.16
2018-03-21T18:25:26.860Z,101981.32
2018-03-21T18:27:55.538Z,101981.64
2018-03-21T18:30:24.138Z,101977.39
2018-03-21T18:32:52.682Z,101974.47
2018-03-21T18:35:21.875Z,101973.70
2018-03-21T18:37:52.324Z,101969.73
2018-03-21T18:40:22.297Z,101961.47
2018-03-21T18:42:51.013Z,101962.80
2018-03-21T18:45:19.809Z,101966.34
2018-03-21T18:47:48.560Z,101966.27
2018-03-21T18:50:18.267Z,101956.05
2018-03-21T18:52:47.809Z,101962.48
2018-03-21T18:55:16.669Z,101965.30
2018-03-21T18:57:45.515Z,101957.04
2018-03-21T19:00:14.529Z,101962.67
2018-03-21T19:02:45.565Z,101957.91
2018-03-21T19:05:14.698Z,101956.66
2018-03-21T19:07:44.511Z,101955.77
2018-03-21T19:10:14.243Z,101950.66
2018-03-21T19:12:44.485Z,101956.18
2018-03-21T19:15:13.798Z,101954.48
2018-03-21T19:17:43.179Z,101954.05
2018-03-21T19:20:12.429Z,101950.55
2018-03-21T19:22:41.523Z,101946.53
2018-03-21T19:25:10.386Z,101948.11
2018-03-21T19:27:39.359Z,101949.43
2018-03-21T19:30:09.321Z,101941.87
2018-03-21T19:32:37.937Z,101939.90
2018-03-21T19:35:07.411Z,101947.09
2018-03-21T19:37:36.214Z,101943.34
2018-03-21T19:40:05.552Z,101946.98
2018-03-21T19:42:34.391Z,101943.84
2018-03-21T19:45:03.098Z,101939.59
2018-03-21T19:47:32.489Z,101937.50
2018-03-21T19:50:02.993Z,101939.05
2018-03-21T19:52:32.153Z,101936.44
2018-03-21T19:55:01.064Z,101935.08
2018-03-21T19:57:29.773Z,101933.81
2018-03-21T19:59:58.642Z,101933.77
2018-03-21T20:02:27.734Z,101929.02
2018-03-21T20:04:57.143Z,101922.65
2018-03-21T20:07:26.136Z,101920.61
2018-03-21T20:09:55.937Z,101915.08
2018-03-21T20:12:25.919Z,101910.22
2018-03-21T20:14:55.513Z,101915.36
2018-03-21T20:17:25.295Z,101904.61
2018-03-21T20:19:55.075Z,101904.92
2018-03-21T20:22:24.217Z,101900.86
2018-03-21T20:24:54.279Z,101901.75
2018-03-21T20:27:24.073Z,101905.32
2018-03-21T20:29:52.543Z,101908.42
2018-03-21T20:32:21.983Z,101907.98
2018-03-21T20:34:50.871Z,101905.99
2018-03-21T20:37:19.748Z,101896.61
2018-03-21T20:39:48.622Z,101889.25
2018-03-21T20:42:17.342Z,101889.76
2018-03-21T20:44:45.974Z,101885.80
2018-03-21T20:47:14.721Z,101886.45
2018-03-21T20:49:46.305Z,101885.53
2018-03-21T20:52:15.150Z,101882.62
2018-03-21T20:54:44.318Z,101878.02
2018-03-21T20:57:13.403Z,101874.72
2018-03-21T20:59:43.129Z,101877.73
2018-03-21T21:02:12.556Z,101877.82
2018-03-21T21:04:42.457Z,101879.82
2018-03-21T21:07:11.045Z,101875.03
2018-03-21T21:09:40.516Z,101870.34
2018-03-21T21:12:09.158Z,101865.44
2018-03-21T21:14:37.791Z,101861.81
2018-03-21T21:17:06.890Z,101857.83
2018-03-21T21:19:36.289Z,101852.94
2018-03-21T21:22:05.754Z,101851.81
2018-03-21T21:24:34.503Z,101850.66
2018-03-21T21:27:03.330Z,101852.95
2018-03-21T21:29:32.340Z,101847.95
2018-03-21T21:32:00.991Z,101849.77
2018-03-21T21:34:29.645Z,101850.48
2018-03-21T21:36:58.196Z,101848.12
2018-03-21T21:39:26.817Z,101850.83
2018-03-21T21:41:55.320Z,101849.48
2018-03-21T21:44:30.270Z,101837.78
2018-03-21T21:46:59.439Z,101835.11
2018-03-21T21:49:28.187Z,101837.26
2018-03-21T21:51:57.551Z,101834.95
2018-03-21T21:54:25.976Z,101832.39
2018-03-21T21:56:56.047Z,101833.52
2018-03-21T21:59:24.867Z,101828.93
2018-03-21T22:01:53.823Z,101827.76
2018-03-21T22:04:22.484Z,101820.20
2018-03-21T22:06:52.292Z,101825.23
2018-03-21T22:09:21.252Z,101820.77
2018-03-21T22:11:49.965Z,101822.23
2018-03-21T22:14:19.382Z,101817.30
2018-03-21T22:16:48.973Z,101810.58
2018-03-21T22:19:17.615Z,101806.89
2018-03-21T22:21:46.049Z,101799.09
2018-03-21T22:24:14.659Z,101798.31
2018-03-21T22:26:43.151Z,101786.36
2018-03-21T22:29:11.924Z,101786.23
2018-03-21T22:31:40.796Z,101789.69
2018-03-21T22:34:10.841Z,101785.16
2018-03-21T22:36:39.532Z,101782.63
2018-03-21T22:39:08.158Z,101783.00
2018-03-21T22:41:36.877Z,101780.98
2018-03-21T22:44:05.402Z,101771.64
2018-03-21T22:46:34.163Z,101774.50
2018-03-21T22:49:02.687Z,101771.52
2018-03-21T22:51:31.299Z,101771.06
2018-03-21T22:54:00.468Z,101760.80
2018-03-21T22:56:28.975Z,101767.55
2018-03-21T22:58:57.626Z,101763.80
2018-03-21T23:01:27.263Z,101759.05
2018-03-21T23:03:56.076Z,101758.31
2018-03-21T23:06:25.221Z,101750.92
2018-03-21T23:08:53.889Z,101749.01
2018-03-21T23:11:23.397Z,101740.78
2018-03-21T23:13:52.189Z,101745.02
2018-03-21T23:16:20.743Z,101741.41
2018-03-21T23:18:49.328Z,101747.30
2018-03-21T23:21:18.105Z,101745.08
2018-03-21T23:23:46.721Z,101735.86
2018-03-21T23:26:15.280Z,101734.56
2018-03-21T23:28:44.127Z,101723.66
2018-03-21T23:31:12.618Z,101727.52
2018-03-21T23:33:41.472Z,101724.92
2018-03-21T23:36:10.766Z,101723.98
2018-03-21T23:38:39.292Z,101717.09
2018-03-21T23:41:08.004Z,101708.18
2018-03-21T23:43:36.644Z,101704.53
2018-03-21T23:46:05.648Z,101706.67
2018-03-21T23:48:34.309Z,101707.72
2018-03-21T23:51:03.652Z,101702.56
2018-03-21T23:53:32.310Z,101700.36
2018-03-21T23:56:00.938Z,101706.72
2018-03-21T23:58:29.558Z,101695.88
